メインページ
METAR-TAF:

METAR-TAF

空港 :

ポンタ・デルガダ空港

ポンタ・デルガダ, アゾレス諸島, ポルトガル

緯度: 37-44N, 経度: 025-42W, 海抜: 71m

現時点の気象観測

当レポートは28分前の06:00(UTC)に作成
北西の風 14kt
気温 12°C
湿度 76%
気圧 1018 hPa
視程10km以上
高度1600ftの雲はほとんどない
高度3000ftの雲は散在している
弱いにわか雨

METAR: LPPD 150600Z 31014KT 9999 -SHRA FEW016 SCT030 12/08 Q1018

時間: 05:28 (06:28 UTC)

予報

当レポートは1時間28分前の05:00(UTC)に作成
予報は15日の 06時(UTC)から 16日の 06時(UTC)まで有効
北西の風 15kt
視程10km以上
高度2500ftの雲は散在している
15日の 06時(UTC)から 16日の 06時(UTC)まで一時的に
視程: 8000m
高度1500ftの千切れ雲あり
高度3000ftの雲はほとんどない, 塔状積雲.
にわか雨
15日の 12時(UTC)から 15日の 15時(UTC)まで徐々に
北/北西の風 20kt
15日の 12時(UTC)から 15日の 24時(UTC)まで一時的に
北/北西の風 25kt、最大35ktの突風を伴う
確率 30% :
15日の 18時(UTC)から 15日の 24時(UTC)まで一時的に
北/北西の風 30kt、最大40ktの突風を伴う

TAF: LPPD 150500Z 1506/1606 32015KT 9999 SCT025 TEMPO 1506/1606 8000 SHRA BKN015 FEW030TCU BECMG 1512/1515 33020KT TEMPO 1512/1524 33025G35KT PROB30 TEMPO 1518/1524 33030G40KT

4,000以上の空港の気象観測と天気予報(METAR報とTAF報)

利用可能な観測所は地図上に黄色い丸と赤い丸で示す。

丸の上にカーソルを重ねると観測所名を参照できる。

次にクリックすると気象観測と天気予報を参照できる。

マップの切り替え:黒色「×」印の緑ボタンをクリックして拡大、「-」印の緑ボタンをクリックして縮小、緑色の三角印をクリックして隣りの地図に切り替え


METAR-TAF: